Terminal Aerodrome Forecast
Issued by NWS

Home | Current Version | Previous Version | Text Only | Print | Product List | Glossary On
Versions: 1 2 3 4 5 6 7 8 9 10 11 12 13 14
000
FTUS45 KFGZ 172300
TAFPRC
TAF
KPRC 172323Z 1800/1824 06007KT P6SM VCSH SCT035 BKN080
      TEMPO 1800/1804 3SM SHRA BKN025
     FM180400 15005KT P6SM SCT100
     FM181800 25007KT P6SM VCSH SCT040 BKN060
      TEMPO 1818/1822 3SM TSRA BKN025CB OVC040=

USA.gov is the U.S. government's official web portal to all federal, state and local government web resources and services.